createdAt,value
2023-02-11T00:00:31.348Z,35.58
2023-02-11T00:01:37.270Z,32.10
2023-02-11T00:02:40.507Z,32.38
2023-02-11T00:03:43.769Z,33.20
2023-02-11T00:04:46.948Z,25.02
2023-02-11T00:06:00.917Z,31.00
2023-02-11T00:07:03.971Z,31.73
2023-02-11T00:08:07.146Z,34.42
2023-02-11T00:09:11.567Z,33.00
2023-02-11T00:10:14.791Z,34.80
2023-02-11T00:11:20.518Z,27.30
2023-02-11T00:12:23.965Z,33.30
2023-02-11T00:13:27.692Z,30.02
2023-02-11T00:14:30.821Z,32.70
2023-02-11T00:15:33.898Z,34.35
2023-02-11T00:16:37.149Z,29.10
2023-02-11T00:17:40.461Z,32.83
2023-02-11T00:18:44.020Z,30.15
2023-02-11T00:19:51.695Z,33.38
2023-02-11T00:20:55.291Z,35.03
2023-02-11T00:21:58.565Z,32.72
2023-02-11T00:23:01.789Z,27.73
2023-02-11T00:24:05.195Z,33.55
2023-02-11T00:25:08.583Z,29.45
2023-02-11T00:26:21.307Z,31.50
2023-02-11T00:27:24.511Z,30.30
2023-02-11T00:28:28.147Z,32.17
2023-02-11T00:29:31.276Z,36.20
2023-02-11T00:30:34.885Z,30.92
2023-02-11T00:31:38.271Z,31.42
2023-02-11T00:32:42.674Z,26.20
2023-02-11T00:33:46.561Z,27.35
2023-02-11T00:34:55.248Z,27.25
2023-02-11T00:35:58.546Z,34.30
2023-02-11T00:37:01.925Z,34.60
2023-02-11T00:38:04.983Z,35.13
2023-02-11T00:39:09.030Z,32.60
2023-02-11T00:40:12.696Z,28.42
2023-02-11T00:41:17.024Z,32.75
2023-02-11T00:42:20.132Z,27.23
2023-02-11T00:43:23.316Z,33.80
2023-02-11T00:44:27.190Z,28.77
2023-02-11T00:45:30.791Z,26.15
2023-02-11T00:46:33.957Z,29.75
2023-02-11T00:47:38.178Z,25.63
2023-02-11T00:48:42.346Z,28.30
2023-02-11T00:49:45.557Z,24.80
2023-02-11T00:50:48.727Z,33.28
2023-02-11T00:51:51.784Z,25.60
2023-02-11T00:52:56.593Z,26.15
2023-02-11T00:53:59.663Z,29.73
2023-02-11T00:55:02.970Z,31.40
2023-02-11T00:56:06.844Z,24.58
2023-02-11T00:57:09.856Z,25.15
2023-02-11T00:58:13.051Z,28.50
2023-02-11T00:59:16.318Z,23.60
2023-02-11T01:00:20.568Z,28.30
2023-02-11T01:01:24.107Z,25.00
2023-02-11T01:02:27.534Z,28.42
2023-02-11T01:03:30.927Z,27.00
2023-02-11T01:04:34.060Z,31.20
2023-02-11T01:05:37.232Z,24.05
2023-02-11T01:06:40.394Z,26.70
2023-02-11T01:07:43.671Z,20.98
2023-02-11T01:08:46.898Z,19.27
2023-02-11T01:09:49.937Z,19.75
2023-02-11T01:11:07.578Z,19.65
2023-02-11T01:12:10.705Z,30.67
2023-02-11T01:13:15.680Z,23.35
2023-02-11T01:14:18.838Z,29.27
2023-02-11T01:15:24.440Z,27.02
2023-02-11T01:16:27.656Z,26.00
2023-02-11T01:17:30.777Z,25.42
2023-02-11T01:18:34.218Z,22.63
2023-02-11T01:19:38.392Z,25.42
2023-02-11T01:20:43.294Z,19.85
2023-02-11T01:21:46.591Z,23.08
2023-02-11T01:22:49.734Z,26.05
2023-02-11T01:23:53.445Z,30.50
2023-02-11T01:24:56.648Z,26.70
2023-02-11T01:25:59.906Z,21.08
2023-02-11T01:27:05.237Z,25.10
2023-02-11T01:28:24.942Z,22.52
2023-02-11T01:29:28.690Z,24.50
2023-02-11T01:30:31.974Z,23.58
2023-02-11T01:31:35.170Z,29.08
2023-02-11T01:32:39.225Z,27.95
2023-02-11T01:33:42.428Z,36.17
2023-02-11T01:34:45.881Z,23.67
2023-02-11T01:35:50.287Z,30.48
2023-02-11T01:37:00.389Z,25.67
2023-02-11T01:38:06.196Z,29.63
2023-02-11T01:39:09.430Z,26.42
2023-02-11T01:40:17.510Z,23.70
2023-02-11T01:41:21.016Z,32.58
2023-02-11T01:42:24.897Z,24.10
2023-02-11T01:43:35.020Z,21.13
2023-02-11T01:44:40.331Z,21.48
2023-02-11T01:45:49.369Z,25.92
2023-02-11T01:46:52.970Z,26.88
2023-02-11T01:47:56.188Z,27.70
2023-02-11T01:49:11.647Z,24.15
2023-02-11T01:50:14.853Z,26.10
2023-02-11T01:51:28.496Z,20.27
2023-02-11T01:52:37.159Z,23.40
2023-02-11T01:53:59.256Z,22.30
2023-02-11T01:55:29.358Z,30.13
2023-02-11T01:56:53.676Z,30.35
2023-02-11T01:58:02.709Z,25.73
2023-02-11T01:59:18.898Z,23.60
2023-02-11T02:00:40.430Z,24.25
2023-02-11T02:01:52.919Z,25.73
2023-02-11T02:03:04.588Z,27.60
2023-02-11T02:04:09.672Z,26.67
2023-02-11T02:05:41.639Z,29.27
2023-02-11T02:06:59.361Z,27.58
2023-02-11T02:08:45.603Z,26.20
2023-02-11T02:10:09.744Z,25.85
2023-02-11T02:11:13.364Z,26.33
2023-02-11T02:12:16.595Z,28.35
2023-02-11T02:13:19.795Z,24.80
2023-02-11T02:14:23.106Z,26.98
2023-02-11T02:15:36.438Z,25.65
2023-02-11T02:16:39.882Z,25.48
2023-02-11T02:17:57.171Z,31.92
2023-02-11T02:19:34.470Z,21.33
2023-02-11T02:20:45.836Z,24.90
2023-02-11T02:22:14.324Z,26.52
2023-02-11T02:23:32.462Z,21.45
2023-02-11T02:24:45.179Z,26.48
2023-02-11T02:26:09.571Z,24.45
2023-02-11T02:28:07.336Z,24.92
2023-02-11T02:29:38.290Z,26.13
2023-02-11T02:31:47.342Z,25.23
2023-02-11T02:33:23.903Z,24.13
2023-02-11T02:34:50.234Z,25.83
2023-02-11T02:36:22.619Z,27.27
2023-02-11T02:37:42.049Z,22.95
2023-02-11T02:39:14.745Z,28.00
2023-02-11T02:40:34.917Z,19.00
2023-02-11T02:41:39.471Z,25.52
2023-02-11T02:42:44.441Z,24.00
2023-02-11T02:43:51.396Z,22.65
2023-02-11T02:44:56.465Z,27.08
2023-02-11T02:46:33.683Z,25.08
2023-02-11T02:47:36.966Z,26.95
2023-02-11T02:48:40.193Z,26.23
2023-02-11T02:49:43.441Z,28.52
2023-02-11T02:50:47.195Z,25.02
2023-02-11T02:52:17.108Z,31.98
2023-02-11T02:53:45.110Z,20.35
2023-02-11T02:55:15.591Z,22.75
2023-02-11T02:56:49.950Z,23.85
2023-02-11T02:58:19.848Z,22.38
2023-02-11T02:59:55.551Z,26.40
2023-02-11T03:01:35.703Z,19.20
2023-02-11T03:03:44.324Z,27.50
2023-02-11T03:05:08.626Z,24.23
2023-02-11T03:06:55.166Z,26.23
2023-02-11T03:08:14.986Z,18.42
2023-02-11T03:09:39.019Z,17.27
2023-02-11T03:10:50.297Z,23.33
2023-02-11T03:11:54.022Z,20.50
2023-02-11T03:12:58.602Z,21.67
2023-02-11T03:14:04.779Z,27.48
2023-02-11T03:15:09.476Z,21.77
2023-02-11T03:16:25.534Z,22.10
2023-02-11T03:17:30.262Z,23.05
2023-02-11T03:18:36.967Z,23.50
2023-02-11T03:19:46.394Z,20.98
2023-02-11T03:20:53.726Z,21.45
2023-02-11T03:21:57.801Z,20.70
2023-02-11T03:23:37.405Z,25.60
2023-02-11T03:24:41.953Z,23.17
2023-02-11T03:26:18.852Z,21.80
2023-02-11T03:27:33.845Z,20.33
2023-02-11T03:29:09.990Z,27.73
2023-02-11T03:30:29.942Z,23.42
2023-02-11T03:32:18.375Z,23.10
2023-02-11T03:33:34.647Z,24.65
2023-02-11T03:35:15.640Z,26.08
2023-02-11T03:36:30.276Z,24.20
2023-02-11T03:37:43.333Z,20.60
2023-02-11T03:38:52.041Z,21.83
2023-02-11T03:40:05.539Z,19.00
2023-02-11T03:41:10.035Z,24.60
2023-02-11T03:42:15.338Z,19.58
2023-02-11T03:43:23.112Z,26.25
2023-02-11T03:44:33.042Z,26.80
2023-02-11T03:45:38.457Z,21.80
2023-02-11T03:46:48.228Z,29.48
2023-02-11T03:48:09.241Z,21.70
2023-02-11T03:49:16.387Z,28.52
2023-02-11T03:50:21.938Z,24.83
2023-02-11T03:51:27.827Z,25.15
2023-02-11T03:52:31.875Z,19.05
2023-02-11T03:53:36.488Z,34.50
2023-02-11T03:54:43.749Z,25.80
2023-02-11T03:55:50.883Z,22.30
2023-02-11T03:56:59.565Z,25.95
2023-02-11T03:58:02.925Z,24.02
2023-02-11T03:59:06.150Z,27.73
2023-02-11T04:00:11.159Z,26.50
2023-02-11T04:01:17.320Z,24.30
2023-02-11T04:02:23.730Z,20.08
2023-02-11T04:03:26.966Z,26.35
2023-02-11T04:04:30.154Z,26.98
2023-02-11T04:05:33.811Z,26.27
2023-02-11T04:06:36.984Z,28.67
2023-02-11T04:07:39.985Z,24.88
2023-02-11T04:08:43.126Z,26.95
2023-02-11T04:09:46.273Z,26.60
2023-02-11T04:10:49.345Z,26.48
2023-02-11T04:11:52.654Z,28.35
2023-02-11T04:12:55.900Z,28.42
2023-02-11T04:13:59.380Z,25.25
2023-02-11T04:15:03.397Z,25.02
2023-02-11T04:16:06.811Z,25.30
2023-02-11T04:17:10.431Z,36.53
2023-02-11T04:18:13.582Z,26.27
2023-02-11T04:19:16.760Z,30.23
2023-02-11T04:20:19.922Z,26.42
2023-02-11T04:21:23.161Z,31.23
2023-02-11T04:22:26.401Z,29.42
2023-02-11T04:23:29.586Z,32.63
2023-02-11T04:24:32.831Z,31.40
2023-02-11T04:25:36.424Z,33.25
2023-02-11T04:26:39.636Z,27.52
2023-02-11T04:27:42.880Z,33.17
2023-02-11T04:28:46.031Z,27.58
2023-02-11T04:29:49.169Z,25.58
2023-02-11T04:30:52.318Z,29.90
2023-02-11T04:31:55.906Z,25.58
2023-02-11T04:32:59.392Z,29.25
2023-02-11T04:34:02.576Z,31.98
2023-02-11T04:35:06.739Z,31.80
2023-02-11T04:36:09.855Z,30.55
2023-02-11T04:37:12.927Z,25.48
2023-02-11T04:38:16.422Z,35.25
2023-02-11T04:39:19.567Z,29.85
2023-02-11T04:40:22.597Z,28.50
2023-02-11T04:41:25.730Z,26.33
2023-02-11T04:42:28.806Z,29.08
2023-02-11T04:43:32.016Z,34.10
2023-02-11T04:44:35.247Z,32.80
2023-02-11T04:45:38.280Z,30.83
2023-02-11T04:46:41.486Z,33.90
2023-02-11T04:47:44.762Z,33.17
2023-02-11T04:48:47.839Z,27.98
2023-02-11T04:49:51.001Z,30.15
2023-02-11T04:50:54.185Z,31.33
2023-02-11T04:51:57.396Z,25.30
2023-02-11T04:53:00.493Z,33.75
2023-02-11T04:54:03.659Z,34.78
2023-02-11T04:55:07.241Z,29.38
2023-02-11T04:56:10.339Z,31.90
2023-02-11T04:57:13.387Z,32.63
2023-02-11T04:58:17.961Z,36.42
2023-02-11T04:59:21.103Z,38.20
2023-02-11T05:00:24.152Z,35.83
2023-02-11T05:01:27.417Z,33.38
2023-02-11T05:02:30.606Z,37.17
2023-02-11T05:03:33.684Z,34.80
2023-02-11T05:04:36.844Z,37.40
2023-02-11T05:05:41.766Z,36.38
2023-02-11T05:06:44.960Z,36.15
2023-02-11T05:07:48.562Z,33.13
2023-02-11T05:08:51.878Z,33.45
2023-02-11T05:09:54.927Z,34.72
2023-02-11T05:10:58.670Z,34.17
2023-02-11T05:12:01.776Z,33.65
2023-02-11T05:13:05.333Z,39.20
2023-02-11T05:14:08.548Z,33.05
2023-02-11T05:15:11.715Z,37.80
2023-02-11T05:16:16.572Z,36.22
2023-02-11T05:17:19.672Z,31.88
2023-02-11T05:18:23.063Z,33.17
2023-02-11T05:19:26.195Z,32.83
2023-02-11T05:20:29.352Z,30.55
2023-02-11T05:21:32.649Z,33.55
2023-02-11T05:22:35.948Z,30.15
2023-02-11T05:23:40.183Z,33.33
2023-02-11T05:24:43.366Z,30.25
2023-02-11T05:25:46.497Z,36.47
2023-02-11T05:26:49.794Z,32.00
2023-02-11T05:27:52.908Z,33.67
2023-02-11T05:28:56.713Z,31.60
2023-02-11T05:29:59.926Z,34.80
2023-02-11T05:31:03.600Z,30.52
2023-02-11T05:32:08.954Z,36.60
2023-02-11T05:33:12.056Z,32.63
2023-02-11T05:34:15.322Z,33.78
2023-02-11T05:35:18.611Z,31.02
2023-02-11T05:36:21.684Z,33.17
2023-02-11T05:37:24.804Z,38.25
2023-02-11T05:38:28.564Z,31.75
2023-02-11T05:39:31.709Z,31.80
2023-02-11T05:40:34.804Z,36.00
2023-02-11T05:41:38.320Z,32.85
2023-02-11T05:42:41.676Z,34.15
2023-02-11T05:43:44.765Z,35.63
2023-02-11T05:44:50.482Z,33.30
2023-02-11T05:45:54.201Z,30.90
2023-02-11T05:46:57.534Z,35.60
2023-02-11T05:48:00.893Z,27.73
2023-02-11T05:49:04.573Z,36.10
2023-02-11T05:50:08.260Z,35.30
2023-02-11T05:51:11.576Z,31.05
2023-02-11T05:52:14.740Z,32.45
2023-02-11T05:53:17.917Z,38.13
2023-02-11T05:54:21.285Z,29.15
2023-02-11T05:55:24.563Z,31.70
2023-02-11T05:56:27.729Z,37.17
2023-02-11T05:57:30.890Z,34.42
2023-02-11T05:58:34.127Z,31.58
2023-02-11T05:59:37.460Z,34.78
2023-02-11T06:00:40.864Z,31.60
2023-02-11T06:01:44.368Z,31.13
2023-02-11T06:02:47.645Z,33.45
2023-02-11T06:03:51.537Z,32.47
2023-02-11T06:04:54.632Z,35.85
2023-02-11T06:05:57.796Z,31.63
2023-02-11T06:07:01.123Z,35.22
2023-02-11T06:08:04.498Z,31.30
2023-02-11T06:09:07.597Z,35.35
2023-02-11T06:10:11.013Z,30.55
2023-02-11T06:11:18.106Z,29.35
2023-02-11T06:12:21.369Z,35.85
2023-02-11T06:13:24.539Z,41.15
2023-02-11T06:14:27.687Z,30.98
2023-02-11T06:15:30.993Z,35.22
2023-02-11T06:16:34.185Z,37.00
2023-02-11T06:17:37.486Z,34.40
2023-02-11T06:18:40.739Z,34.97
2023-02-11T06:19:44.075Z,33.15
2023-02-11T06:20:47.146Z,38.15
2023-02-11T06:21:50.378Z,35.50
2023-02-11T06:22:53.451Z,32.05
2023-02-11T06:23:57.936Z,31.75
2023-02-11T06:25:02.298Z,44.30
2023-02-11T06:26:08.975Z,36.35
2023-02-11T06:27:12.335Z,40.38
2023-02-11T06:28:15.582Z,33.75
2023-02-11T06:29:18.986Z,37.70
2023-02-11T06:30:22.260Z,32.67
2023-02-11T06:31:25.397Z,33.85
2023-02-11T06:32:43.305Z,39.08
2023-02-11T06:33:47.375Z,42.28
2023-02-11T06:34:50.535Z,36.17
2023-02-11T06:35:53.702Z,37.33
2023-02-11T06:36:56.808Z,39.85
2023-02-11T06:38:00.259Z,44.28
2023-02-11T06:39:04.110Z,33.67
2023-02-11T06:40:08.029Z,37.97
2023-02-11T06:41:13.821Z,32.83
2023-02-11T06:42:17.113Z,35.92
2023-02-11T06:43:20.210Z,40.00
2023-02-11T06:44:23.530Z,34.22
2023-02-11T06:45:26.610Z,40.13
2023-02-11T06:46:29.794Z,38.90
2023-02-11T06:47:32.925Z,36.30
2023-02-11T06:48:36.512Z,35.10
2023-02-11T06:49:39.660Z,35.30
2023-02-11T06:50:43.221Z,37.97
2023-02-11T06:51:46.310Z,38.90
2023-02-11T06:52:49.403Z,36.17
2023-02-11T06:53:52.623Z,37.08
2023-02-11T06:54:55.736Z,33.08
2023-02-11T06:56:08.389Z,38.53
2023-02-11T06:57:11.582Z,37.42
2023-02-11T06:58:15.105Z,33.38
2023-02-11T06:59:22.940Z,35.28
2023-02-11T07:00:26.616Z,32.10
2023-02-11T07:01:29.907Z,35.45
2023-02-11T07:02:33.411Z,41.42
2023-02-11T07:03:39.064Z,38.97
2023-02-11T07:04:42.238Z,34.03
2023-02-11T07:05:45.441Z,34.28
2023-02-11T07:06:48.605Z,38.38
2023-02-11T07:07:51.777Z,37.90
2023-02-11T07:08:56.574Z,34.10
2023-02-11T07:09:59.920Z,40.28
2023-02-11T07:11:13.927Z,31.70
2023-02-11T07:12:17.002Z,30.48
2023-02-11T07:13:20.122Z,40.10
2023-02-11T07:14:23.450Z,39.63
2023-02-11T07:15:26.729Z,39.42
2023-02-11T07:16:30.447Z,41.88
2023-02-11T07:17:35.786Z,41.92
2023-02-11T07:18:39.325Z,38.42
2023-02-11T07:19:42.900Z,37.50
2023-02-11T07:20:46.324Z,39.17
2023-02-11T07:21:49.451Z,37.28
2023-02-11T07:22:52.633Z,43.13
2023-02-11T07:23:55.843Z,34.95
2023-02-11T07:24:58.983Z,38.95
2023-02-11T07:26:10.031Z,34.30
2023-02-11T07:27:13.236Z,37.97
2023-02-11T07:28:16.435Z,36.20
2023-02-11T07:29:19.501Z,44.28
2023-02-11T07:30:22.609Z,29.80
2023-02-11T07:31:29.441Z,44.03
2023-02-11T07:32:32.655Z,33.50
2023-02-11T07:33:37.323Z,37.50
2023-02-11T07:34:40.485Z,31.20
2023-02-11T07:35:44.333Z,44.90
2023-02-11T07:36:48.941Z,40.33
2023-02-11T07:37:52.391Z,37.22
2023-02-11T07:38:55.735Z,41.25
2023-02-11T07:39:58.893Z,37.13
2023-02-11T07:41:08.510Z,43.22
2023-02-11T07:42:11.776Z,38.13
2023-02-11T07:43:14.914Z,40.35
2023-02-11T07:44:18.700Z,43.47
2023-02-11T07:45:21.753Z,37.33
2023-02-11T07:46:27.668Z,42.08
2023-02-11T07:47:31.021Z,36.67
2023-02-11T07:48:34.512Z,46.28
2023-02-11T07:49:37.751Z,37.33
2023-02-11T07:50:40.876Z,42.35
2023-02-11T07:51:44.410Z,39.75
2023-02-11T07:52:47.676Z,37.25
2023-02-11T07:53:51.973Z,40.08
2023-02-11T07:54:55.137Z,40.00
2023-02-11T07:55:58.231Z,38.47
2023-02-11T07:57:01.312Z,45.63
2023-02-11T07:58:04.656Z,42.35
2023-02-11T07:59:07.861Z,38.72
2023-02-11T08:00:12.000Z,41.55
2023-02-11T08:01:24.957Z,42.75
2023-02-11T08:02:28.329Z,37.15
2023-02-11T08:03:33.271Z,45.67
2023-02-11T08:04:36.412Z,34.83
2023-02-11T08:05:39.635Z,43.53
2023-02-11T08:06:43.838Z,38.05
2023-02-11T08:07:46.923Z,43.13
2023-02-11T08:08:52.545Z,38.72
2023-02-11T08:09:55.849Z,45.50
2023-02-11T08:10:59.002Z,40.22
2023-02-11T08:12:02.642Z,42.75
2023-02-11T08:13:05.818Z,38.67
2023-02-11T08:14:11.258Z,40.45
2023-02-11T08:15:14.698Z,39.10
2023-02-11T08:16:34.182Z,40.28
2023-02-11T08:17:37.986Z,39.90
2023-02-11T08:18:41.145Z,41.03
2023-02-11T08:19:44.478Z,38.13
2023-02-11T08:20:47.684Z,43.40
2023-02-11T08:21:51.037Z,40.65
2023-02-11T08:22:54.266Z,39.33
2023-02-11T08:23:57.523Z,40.40
2023-02-11T08:25:01.070Z,46.45
2023-02-11T08:26:06.697Z,48.28
2023-02-11T08:27:09.879Z,40.42
2023-02-11T08:28:13.097Z,39.55
2023-02-11T08:29:17.352Z,42.25
2023-02-11T08:30:20.659Z,41.83
2023-02-11T08:31:27.871Z,43.55
2023-02-11T08:32:31.125Z,43.05
2023-02-11T08:33:34.907Z,37.38
2023-02-11T08:34:38.094Z,37.55
2023-02-11T08:35:41.451Z,37.55
2023-02-11T08:36:44.955Z,44.95
2023-02-11T08:37:48.067Z,37.92
2023-02-11T08:38:51.398Z,38.17
2023-02-11T08:39:54.567Z,40.50
2023-02-11T08:41:01.070Z,41.63
2023-02-11T08:42:04.484Z,40.70
2023-02-11T08:43:08.238Z,36.75
2023-02-11T08:44:11.768Z,38.47
2023-02-11T08:45:14.863Z,41.97
2023-02-11T08:46:20.127Z,37.60
2023-02-11T08:47:23.352Z,35.28
2023-02-11T08:48:28.699Z,39.17
2023-02-11T08:49:33.994Z,38.50
2023-02-11T08:50:40.061Z,37.50
2023-02-11T08:51:43.724Z,38.42
2023-02-11T08:52:46.844Z,36.63
2023-02-11T08:53:50.560Z,40.28
2023-02-11T08:54:53.781Z,38.15
2023-02-11T08:55:57.068Z,39.13
2023-02-11T08:57:01.954Z,36.38
2023-02-11T08:58:05.366Z,38.17
2023-02-11T08:59:12.406Z,38.47
2023-02-11T09:00:17.225Z,36.42
2023-02-11T09:01:27.310Z,37.10
2023-02-11T09:02:30.727Z,33.83
2023-02-11T09:03:33.945Z,38.78
2023-02-11T09:04:37.073Z,31.33
2023-02-11T09:05:49.970Z,35.13
2023-02-11T09:06:53.298Z,41.20
2023-02-11T09:07:56.392Z,40.35
2023-02-11T09:08:59.780Z,42.35
2023-02-11T09:10:03.100Z,32.95
2023-02-11T09:11:06.509Z,39.42
2023-02-11T09:12:09.692Z,39.20
2023-02-11T09:13:13.101Z,37.90
2023-02-11T09:14:22.404Z,34.25
2023-02-11T09:15:25.509Z,37.60
2023-02-11T09:16:32.946Z,36.53
2023-02-11T09:17:36.127Z,38.42
2023-02-11T09:18:39.268Z,38.47
2023-02-11T09:19:42.338Z,40.10
2023-02-11T09:20:45.613Z,40.05
2023-02-11T09:21:48.762Z,41.55
2023-02-11T09:22:52.301Z,40.60
2023-02-11T09:23:55.750Z,44.35
2023-02-11T09:24:58.924Z,40.08
2023-02-11T09:26:18.468Z,40.47
2023-02-11T09:27:21.855Z,47.72
2023-02-11T09:28:24.924Z,39.42
2023-02-11T09:29:28.084Z,38.50
2023-02-11T09:30:31.268Z,39.58
2023-02-11T09:31:35.172Z,41.42
2023-02-11T09:32:38.670Z,39.42
2023-02-11T09:33:49.621Z,37.95
2023-02-11T09:34:52.931Z,37.47
2023-02-11T09:35:56.153Z,39.03
2023-02-11T09:36:59.225Z,39.13
2023-02-11T09:38:02.391Z,38.13
2023-02-11T09:39:17.176Z,43.95
2023-02-11T09:40:20.509Z,49.05
2023-02-11T09:41:23.595Z,44.70
2023-02-11T09:42:47.248Z,38.35
2023-02-11T09:44:04.882Z,44.95
2023-02-11T09:45:25.915Z,45.97
2023-02-11T09:47:52.027Z,35.47
2023-02-11T09:48:56.876Z,42.25
2023-02-11T09:50:12.649Z,45.45
2023-02-11T09:51:49.732Z,44.13
2023-02-11T09:53:44.462Z,54.17
2023-02-11T09:55:00.452Z,44.95
2023-02-11T09:56:15.389Z,50.55
2023-02-11T09:57:28.349Z,47.15
2023-02-11T09:58:40.055Z,43.03
2023-02-11T09:59:43.461Z,48.30
2023-02-11T10:01:01.523Z,43.75
2023-02-11T10:03:07.785Z,51.15
2023-02-11T10:04:31.547Z,43.72
2023-02-11T10:05:51.166Z,49.85
2023-02-11T10:07:37.114Z,48.55
2023-02-11T10:09:17.513Z,41.97
2023-02-11T10:10:45.725Z,36.45
2023-02-11T10:12:22.379Z,46.15
2023-02-11T10:13:48.616Z,48.17
2023-02-11T10:15:49.715Z,44.42
2023-02-11T10:17:17.100Z,41.75
2023-02-11T10:18:38.747Z,46.40
2023-02-11T10:20:06.321Z,47.78
2023-02-11T10:21:41.678Z,46.67
2023-02-11T10:23:08.542Z,43.40
2023-02-11T10:24:14.589Z,40.53
2023-02-11T10:25:40.490Z,50.10
2023-02-11T10:26:44.728Z,44.20
2023-02-11T10:27:49.680Z,48.60
2023-02-11T10:28:56.070Z,55.92
2023-02-11T10:30:33.668Z,56.95
2023-02-11T10:31:44.153Z,49.17
2023-02-11T10:32:55.288Z,52.47
2023-02-11T10:34:05.253Z,48.63
2023-02-11T10:35:21.201Z,47.13
2023-02-11T10:36:30.528Z,44.22
2023-02-11T10:37:33.678Z,49.10
2023-02-11T10:38:37.423Z,43.60
2023-02-11T10:39:41.749Z,44.55
2023-02-11T10:40:45.899Z,46.15
2023-02-11T10:41:52.292Z,44.65
2023-02-11T10:43:07.532Z,46.58
2023-02-11T10:44:37.568Z,45.75
2023-02-11T10:45:51.994Z,46.65
2023-02-11T10:46:57.172Z,44.55
2023-02-11T10:48:03.891Z,46.05
2023-02-11T10:49:07.065Z,48.20
2023-02-11T10:50:25.608Z,45.65
2023-02-11T10:51:34.174Z,48.53
2023-02-11T10:52:37.342Z,40.20
2023-02-11T10:53:40.591Z,45.50
2023-02-11T10:54:56.493Z,47.28
2023-02-11T10:55:59.589Z,47.38
2023-02-11T10:57:02.735Z,54.40
2023-02-11T10:58:06.361Z,50.30
2023-02-11T10:59:31.473Z,53.30
2023-02-11T11:00:40.827Z,51.50
2023-02-11T11:01:56.072Z,47.15
2023-02-11T11:03:01.369Z,46.30
2023-02-11T11:04:04.570Z,54.90
2023-02-11T11:05:20.010Z,44.90
2023-02-11T11:06:33.592Z,51.13
2023-02-11T11:07:37.186Z,44.97
2023-02-11T11:08:51.908Z,47.33
2023-02-11T11:10:08.529Z,48.78
2023-02-11T11:11:21.497Z,44.05
2023-02-11T11:12:36.497Z,50.60
2023-02-11T11:13:54.232Z,54.03
2023-02-11T11:15:28.580Z,51.80
2023-02-11T11:16:36.738Z,51.38
2023-02-11T11:17:40.265Z,52.08
2023-02-11T11:18:53.626Z,50.40
2023-02-11T11:20:20.849Z,51.05
2023-02-11T11:21:30.403Z,52.05
2023-02-11T11:22:33.628Z,58.47
2023-02-11T11:23:38.640Z,49.60
2023-02-11T11:24:46.797Z,49.58
2023-02-11T11:26:12.967Z,51.70
2023-02-11T11:27:25.937Z,47.90
2023-02-11T11:28:32.870Z,53.45
2023-02-11T11:29:55.174Z,51.95
2023-02-11T11:31:00.653Z,50.58
2023-02-11T11:32:20.890Z,49.13
2023-02-11T11:33:33.503Z,50.15
2023-02-11T11:34:48.648Z,52.78
2023-02-11T11:36:15.765Z,53.05
2023-02-11T11:37:29.876Z,52.08
2023-02-11T11:38:35.230Z,43.13
2023-02-11T11:39:39.732Z,43.47
2023-02-11T11:40:42.887Z,56.30
2023-02-11T11:42:24.409Z,51.28
2023-02-11T11:43:27.628Z,52.75
2023-02-11T11:44:35.750Z,46.63
2023-02-11T11:45:39.258Z,47.47
2023-02-11T11:46:45.701Z,50.30
2023-02-11T11:48:14.528Z,52.83
2023-02-11T11:49:33.039Z,52.38
2023-02-11T11:50:50.239Z,42.40
2023-02-11T11:52:55.138Z,48.55
2023-02-11T11:54:08.682Z,42.83
2023-02-11T11:55:50.084Z,49.28
2023-02-11T11:57:35.276Z,45.80
2023-02-11T11:58:38.940Z,44.85
2023-02-11T11:59:42.322Z,45.30
2023-02-11T12:01:28.171Z,48.75
2023-02-11T12:03:02.582Z,47.90
2023-02-11T12:04:38.838Z,46.03
2023-02-11T12:06:41.658Z,44.28
2023-02-11T12:08:03.212Z,40.75
2023-02-11T12:09:39.761Z,46.95
2023-02-11T12:11:35.531Z,42.15
2023-02-11T12:12:56.708Z,48.88
2023-02-11T12:14:05.429Z,47.28
2023-02-11T12:15:26.698Z,45.15
2023-02-11T12:16:52.755Z,44.67
2023-02-11T12:18:25.081Z,48.53
2023-02-11T12:20:26.292Z,46.95
2023-02-11T12:21:50.795Z,42.83
2023-02-11T12:23:30.199Z,44.85
2023-02-11T12:25:08.901Z,48.20
2023-02-11T12:26:20.551Z,52.58
2023-02-11T12:27:42.393Z,47.67
2023-02-11T12:29:23.979Z,46.65
2023-02-11T12:30:57.454Z,43.58
2023-02-11T12:32:44.339Z,42.92
2023-02-11T12:34:15.636Z,43.50
2023-02-11T12:35:37.340Z,44.35
2023-02-11T12:37:23.624Z,47.22
2023-02-11T12:39:01.733Z,42.30
2023-02-11T12:40:12.236Z,48.70
2023-02-11T12:41:43.659Z,51.00
2023-02-11T12:43:21.679Z,42.13
2023-02-11T12:44:29.967Z,43.15
2023-02-11T12:46:19.164Z,41.88
2023-02-11T12:48:09.565Z,44.05
2023-02-11T12:49:45.698Z,39.58
2023-02-11T12:51:20.580Z,49.28
2023-02-11T12:52:43.990Z,44.38
2023-02-11T12:54:06.981Z,41.75
2023-02-11T12:55:13.938Z,46.75
2023-02-11T12:56:51.982Z,42.50
2023-02-11T12:57:58.145Z,41.50
2023-02-11T12:59:05.284Z,43.55
2023-02-11T13:00:14.917Z,44.17
2023-02-11T13:01:26.411Z,44.05
2023-02-11T13:03:04.583Z,45.38
2023-02-11T13:04:42.267Z,40.70
2023-02-11T13:06:01.082Z,44.92
2023-02-11T13:07:16.082Z,44.45
2023-02-11T13:09:00.325Z,42.72
2023-02-11T13:10:23.279Z,41.88
2023-02-11T13:11:43.174Z,42.92
2023-02-11T13:13:07.037Z,42.83
2023-02-11T13:14:26.195Z,39.67
2023-02-11T13:15:30.701Z,39.63
2023-02-11T13:16:45.216Z,43.33
2023-02-11T13:18:30.533Z,48.95
2023-02-11T13:19:48.654Z,36.03
2023-02-11T13:21:20.479Z,48.00
2023-02-11T13:22:39.010Z,42.00
2023-02-11T13:24:09.432Z,48.72
2023-02-11T13:25:52.996Z,46.33
2023-02-11T13:27:23.712Z,45.20
2023-02-11T13:28:36.747Z,39.47
2023-02-11T13:29:58.570Z,42.05
2023-02-11T13:31:03.602Z,47.17
2023-02-11T13:32:16.402Z,43.65
2023-02-11T13:33:32.728Z,44.15
2023-02-11T13:34:58.913Z,44.67
2023-02-11T13:36:04.494Z,44.30
2023-02-11T13:37:39.216Z,43.03
2023-02-11T13:38:57.519Z,41.08
2023-02-11T13:40:28.517Z,51.90
2023-02-11T13:41:41.639Z,42.30
2023-02-11T13:42:55.972Z,39.03
2023-02-11T13:44:10.539Z,47.58
2023-02-11T13:45:45.729Z,44.40
2023-02-11T13:46:59.576Z,37.92
2023-02-11T13:48:08.256Z,41.88
2023-02-11T13:49:35.690Z,40.28
2023-02-11T13:50:47.809Z,40.40
2023-02-11T13:51:52.310Z,45.72
2023-02-11T13:53:05.021Z,49.08
2023-02-11T13:54:09.984Z,41.05
2023-02-11T13:55:24.734Z,43.20
2023-02-11T13:56:46.279Z,40.22
2023-02-11T13:58:08.042Z,42.10
2023-02-11T13:59:27.130Z,40.22
2023-02-11T14:00:36.202Z,43.00
2023-02-11T14:02:24.534Z,42.58
2023-02-11T14:03:53.739Z,45.47
2023-02-11T14:05:24.433Z,41.88
2023-02-11T14:07:07.340Z,40.47
2023-02-11T14:08:28.868Z,37.05
2023-02-11T14:09:38.834Z,38.00
2023-02-11T14:10:41.816Z,39.22
2023-02-11T14:11:48.798Z,36.75
2023-02-11T14:13:29.906Z,37.28
2023-02-11T14:14:35.104Z,41.20
2023-02-11T14:15:41.515Z,40.47
2023-02-11T14:17:03.233Z,45.53
2023-02-11T14:18:55.782Z,48.67
2023-02-11T14:20:01.059Z,41.88
2023-02-11T14:21:23.768Z,39.53
2023-02-11T14:22:44.233Z,41.35
2023-02-11T14:23:48.013Z,46.17
2023-02-11T14:24:59.638Z,42.47
2023-02-11T14:26:20.751Z,43.30
2023-02-11T14:27:42.479Z,44.42
2023-02-11T14:29:16.663Z,33.33
2023-02-11T14:31:15.430Z,40.20
2023-02-11T14:32:45.770Z,35.65
2023-02-11T14:34:00.893Z,37.63
2023-02-11T14:35:20.791Z,39.97
2023-02-11T14:36:35.000Z,39.35
2023-02-11T14:38:10.028Z,32.70
2023-02-11T14:39:52.701Z,34.90
2023-02-11T14:41:14.723Z,40.10
2023-02-11T14:42:22.720Z,38.67
2023-02-11T14:43:32.033Z,42.45
2023-02-11T14:44:35.706Z,40.25
2023-02-11T14:45:39.510Z,38.15
2023-02-11T14:46:52.592Z,42.42
2023-02-11T14:48:15.039Z,38.25
2023-02-11T14:49:36.385Z,33.80
2023-02-11T14:50:46.922Z,36.50
2023-02-11T14:52:54.751Z,32.10
2023-02-11T14:54:24.100Z,35.58
2023-02-11T14:55:37.656Z,33.47
2023-02-11T14:56:42.368Z,31.08
2023-02-11T14:57:46.113Z,36.55
2023-02-11T14:58:52.010Z,32.42
2023-02-11T15:00:14.583Z,35.05
2023-02-11T15:01:42.019Z,31.75
2023-02-11T15:02:45.474Z,34.00
2023-02-11T15:03:50.246Z,31.92
2023-02-11T15:04:54.986Z,30.88
2023-02-11T15:06:06.919Z,31.85
2023-02-11T15:07:13.775Z,31.55
2023-02-11T15:08:16.895Z,32.42
2023-02-11T15:09:28.288Z,35.75
2023-02-11T15:10:54.069Z,36.15
2023-02-11T15:11:58.907Z,29.65
2023-02-11T15:13:04.819Z,38.55
2023-02-11T15:14:17.401Z,26.15
2023-02-11T15:15:20.859Z,27.17
2023-02-11T15:16:28.583Z,27.05